Accueil
METAR-TAF:

METAR-TAF

Aéroports :

Aéroport de Béziers-Cap d'Agde

Béziers, France

latitude: 43-19N, longitude: 003-21E, altitude: 17 m

Observation

Le bulletin a été fait il y a 29 minutes, à 02:30 UTC
Vent 5 kt de ouest
Température 16°C
Humidité 82%
Pression 1016 hPa
Visibilité 10 km ou plus
pas de nuages en-dessous de 1500 mètres et pas de cumulonimbus.

METAR: LFMU 020230Z AUTO 28005KT CAVOK 16/13 Q1016

Heure: 04:59 (02:59 UTC)

Prévision

Le bulletin a été fait il y a 59 minutes, à 02:00 UTC
Prévision valable du 02 à 03 UTC au 03 à 03 UTC
Vent 6 kt de ouest
Visibilité 10 km ou plus
pas de nuages en-dessous de 1500 mètres et pas de cumulonimbus.
Evoluant progressivement
du 02 à 12 UTC au 02 à 13 UTC
Vent 12 kt de sud
Evoluant progressivement
du 02 à 18 UTC au 02 à 21 UTC
Vent 5 kt de ouest/nord-ouest

TAF: LFMU 020200Z 0203/0303 28006KT CAVOK BECMG 0212/0213 18012KT BECMG 0218/0221 30005KT

Observations et prévisions météorologiques de plus de 4000 aéroports (messages METAR et TAF).

Les stations disponibles sont représentées par des disques jaunes et rouges sur la carte.

Passer la souris dessus pour voir le nom de la station.

Cliquer dessus pour voir les observations et prévisions météorologiques.

Pour changer de carte: cliquez sur les boutons verts avec une croix noire pour zoomer, sur le bouton vert avec un tiret pour effectuer un zoom arrière, ou sur les flèches vertes pour les cartes adjacentes.


METAR-TAF: